Time;durP1;ratioP1;P1;durP2;ratioP2;P2;SDS_P1;SDS_P2;PMS_P1;PMS_P2;Temp;Humidity;BMP_temperature;BMP_pressure;BME280_temperature;BME280_humidity;BME280_pressure;Samples;Min_cycle;Max_cycle;Signal;HPM_P1;HPM_P2
2021/11/01 00:00:02;;;;;;;4.10;2.50;;;24.00;52.10;;;;;;5052723;28;20039;-59
2021/11/01 00:02:29;;;;;;;3.42;2.17;;;23.90;52.10;;;;;;5048938;28;20037;-55
2021/11/01 00:04:54;;;;;;;4.05;2.40;;;23.90;52.10;;;;;;5042758;28;20111;-57
2021/11/01 00:07:20;;;;;;;4.45;2.30;;;23.90;52.20;;;;;;5040879;28;20540;-61
2021/11/01 00:09:46;;;;;;;4.40;2.50;;;23.90;52.20;;;;;;5041997;28;20025;-58
2021/11/01 00:12:13;;;;;;;4.00;2.40;;;23.80;52.10;;;;;;5057323;28;20103;-55
2021/11/01 00:14:39;;;;;;;4.70;2.20;;;23.80;52.10;;;;;;5051653;28;20524;-58
2021/11/01 00:17:05;;;;;;;3.28;2.03;;;23.80;52.20;;;;;;5048679;28;20067;-56
2021/11/01 00:19:30;;;;;;;4.60;2.72;;;23.80;52.20;;;;;;5045612;28;20110;-58
2021/11/01 00:21:56;;;;;;;3.92;2.42;;;23.70;52.20;;;;;;5044961;28;20145;-58
2021/11/01 00:24:22;;;;;;;4.97;2.38;;;23.70;52.20;;;;;;5048932;28;20514;-59
2021/11/01 00:26:47;;;;;;;3.80;2.13;;;23.70;52.20;;;;;;5051292;28;20020;-56
2021/11/01 00:29:13;;;;;;;3.28;2.28;;;23.70;52.30;;;;;;5058643;28;20079;-56
2021/11/01 00:31:39;;;;;;;3.70;2.20;;;23.70;52.20;;;;;;5047443;28;20041;-56
2021/11/01 00:34:05;;;;;;;4.40;2.15;;;23.70;52.30;;;;;;5052954;28;20158;-59
2021/11/01 00:36:30;;;;;;;4.20;2.70;;;23.70;52.30;;;;;;5049736;28;20025;-60
2021/11/01 00:38:56;;;;;;;4.65;2.22;;;23.70;52.40;;;;;;5057837;28;20029;-57
2021/11/01 00:41:22;;;;;;;3.97;2.28;;;23.60;52.30;;;;;;5045819;28;20035;-58
2021/11/01 00:43:48;;;;;;;3.50;2.38;;;23.60;52.40;;;;;;5049678;28;20037;-62
2021/11/01 00:46:15;;;;;;;4.00;2.13;;;23.60;52.40;;;;;;5042121;28;20559;-60
2021/11/01 00:48:40;;;;;;;4.05;2.20;;;23.50;52.30;;;;;;5045467;28;20163;-60
2021/11/01 00:51:06;;;;;;;4.15;2.60;;;23.60;52.40;;;;;;5046348;28;20125;-59
2021/11/01 00:53:33;;;;;;;3.97;2.33;;;23.60;52.40;;;;;;5055639;28;20032;-59
2021/11/01 00:56:00;;;;;;;4.30;2.20;;;23.60;52.40;;;;;;5055302;28;20020;-59
2021/11/01 00:58:26;;;;;;;2.70;2.00;;;23.50;52.40;;;;;;5060240;28;20035;-59
2021/11/01 01:00:53;;;;;;;3.20;2.08;;;23.50;52.40;;;;;;5056099;28;20041;-60
2021/11/01 01:03:19;;;;;;;3.78;2.20;;;23.50;52.40;;;;;;5034388;28;20033;-57
2021/11/01 01:05:46;;;;;;;3.67;2.25;;;23.50;52.40;;;;;;5058494;28;20554;-57
2021/11/01 01:08:13;;;;;;;3.58;2.40;;;23.50;52.50;;;;;;5054566;28;20020;-62
2021/11/01 01:10:39;;;;;;;3.45;1.98;;;23.40;52.40;;;;;;5044765;28;20100;-57
2021/11/01 01:13:06;;;;;;;3.47;1.98;;;23.40;52.40;;;;;;5041624;28;20079;-58
2021/11/01 01:15:43;;;;;;;3.40;2.40;;;23.40;52.50;;;;;;5055668;28;20032;-59
2021/11/01 01:18:15;;;;;;;3.25;2.28;;;23.40;52.50;;;;;;5054684;28;20455;-60
2021/11/01 01:20:41;;;;;;;2.85;2.05;;;23.40;52.50;;;;;;5049718;28;20063;-57
2021/11/01 01:23:06;;;;;;;2.63;1.92;;;23.40;52.60;;;;;;5047554;28;20095;-62
2021/11/01 01:25:41;;;;;;;3.28;2.25;;;23.30;52.50;;;;;;5052402;28;20358;-57
2021/11/01 01:28:07;;;;;;;3.03;2.30;;;23.30;52.50;;;;;;5052441;28;20056;-55
2021/11/01 01:30:33;;;;;;;3.65;2.40;;;23.30;52.50;;;;;;5040064;28;20070;-61
2021/11/01 01:32:59;;;;;;;3.30;2.20;;;23.30;52.60;;;;;;5045232;28;20121;-62
2021/11/01 01:35:25;;;;;;;3.25;2.42;;;23.30;52.60;;;;;;5059321;28;20100;-60
2021/11/01 01:37:53;;;;;;;3.22;1.95;;;23.20;52.60;;;;;;5060089;28;20057;-58
2021/11/01 01:40:20;;;;;;;4.13;2.25;;;23.20;52.60;;;;;;5044857;28;20437;-62
2021/11/01 01:42:46;;;;;;;2.95;2.08;;;23.20;52.60;;;;;;5050819;28;20453;-60
2021/11/01 01:45:13;;;;;;;3.53;2.20;;;23.20;52.70;;;;;;5061374;28;20083;-61
2021/11/01 01:47:41;;;;;;;2.80;1.90;;;23.20;52.70;;;;;;5042926;28;20018;-55
2021/11/01 01:50:09;;;;;;;3.28;2.20;;;23.20;52.70;;;;;;5045944;28;20056;-59
2021/11/01 01:52:35;;;;;;;3.20;2.10;;;23.10;52.60;;;;;;5040136;28;20064;-57
2021/11/01 01:55:01;;;;;;;3.05;2.20;;;23.10;52.70;;;;;;5042225;28;20516;-61
2021/11/01 01:57:26;;;;;;;3.60;2.35;;;23.10;53.20;;;;;;5033719;28;20414;-58
2021/11/01 01:59:53;;;;;;;3.67;2.10;;;23.10;52.70;;;;;;5046844;28;20473;-53
2021/11/01 02:02:19;;;;;;;2.85;2.00;;;23.10;52.70;;;;;;5038339;28;20048;-58
2021/11/01 02:04:45;;;;;;;3.08;2.10;;;23.10;52.70;;;;;;5043025;28;20112;-57
2021/11/01 02:07:36;;;;;;;2.88;1.90;;;23.10;52.80;;;;;;5046196;28;20126;-61
2021/11/01 02:10:09;;;;;;;3.15;2.17;;;23.00;52.70;;;;;;5044998;28;20021;-59
2021/11/01 02:12:50;;;;;;;3.08;1.98;;;23.00;52.70;;;;;;5048225;28;20044;-60
2021/11/01 02:15:28;;;;;;;3.10;2.20;;;23.00;52.80;;;;;;5047114;28;20033;-63
2021/11/01 02:17:57;;;;;;;2.58;1.90;;;23.00;52.80;;;;;;5048560;28;20116;-57
2021/11/01 02:21:02;;;;;;;2.83;2.10;;;23.00;52.80;;;;;;5039625;28;20052;-60
2021/11/01 02:23:42;;;;;;;2.90;2.00;;;23.00;52.80;;;;;;5038459;28;20078;-57
2021/11/01 02:26:10;;;;;;;3.60;2.10;;;22.90;52.80;;;;;;5033502;28;20043;-60
2021/11/01 02:28:39;;;;;;;3.37;2.10;;;22.90;52.80;;;;;;5044877;28;20432;-60
2021/11/01 02:31:08;;;;;;;2.90;1.98;;;22.90;52.90;;;;;;5031491;28;20025;-62
2021/11/01 02:33:34;;;;;;;3.30;2.13;;;22.90;52.90;;;;;;5046244;28;20048;-54
2021/11/01 02:36:00;;;;;;;3.00;1.88;;;22.90;52.90;;;;;;5037278;28;20026;-60
2021/11/01 02:38:31;;;;;;;3.47;2.20;;;22.90;53.00;;;;;;5039421;28;20100;-55
2021/11/01 02:40:58;;;;;;;2.60;1.83;;;22.90;53.00;;;;;;5034844;28;20040;-59
2021/11/01 02:43:27;;;;;;;3.00;2.08;;;22.80;52.90;;;;;;5036121;28;20036;-54
2021/11/01 02:45:56;;;;;;;2.97;2.00;;;22.80;52.90;;;;;;5043569;28;20086;-55
2021/11/01 02:48:21;;;;;;;3.33;2.08;;;22.80;53.00;;;;;;5047647;28;20036;-53
2021/11/01 02:50:47;;;;;;;3.15;1.67;;;22.80;53.00;;;;;;5046838;28;20029;-60
2021/11/01 02:53:13;;;;;;;3.47;1.88;;;22.80;53.00;;;;;;5045475;28;20091;-56
2021/11/01 02:55:38;;;;;;;2.90;2.03;;;22.80;53.00;;;;;;5040392;28;20032;-56
2021/11/01 02:58:05;;;;;;;2.95;2.17;;;22.80;53.00;;;;;;5037094;28;20033;-57
2021/11/01 03:00:31;;;;;;;2.88;2.10;;;22.70;53.00;;;;;;5047907;28;20037;-58
2021/11/01 03:02:57;;;;;;;2.88;1.90;;;22.70;53.00;;;;;;5049004;28;20091;-57
2021/11/01 03:05:25;;;;;;;3.50;2.20;;;22.70;53.10;;;;;;5043624;28;20060;-62
2021/11/01 03:07:53;;;;;;;3.60;1.98;;;22.70;53.10;;;;;;5047305;28;20071;-60
2021/11/01 03:10:21;;;;;;;2.92;2.00;;;22.70;53.10;;;;;;5045623;28;20038;-60
2021/11/01 03:12:48;;;;;;;3.75;1.83;;;22.70;53.10;;;;;;5049407;28;20770;-57
2021/11/01 03:15:27;;;;;;;3.22;1.73;;;22.70;53.10;;;;;;5036957;28;20040;-60
2021/11/01 03:18:01;;;;;;;3.35;2.00;;;22.70;53.20;;;;;;5047769;28;20033;-58
2021/11/01 03:20:40;;;;;;;2.55;1.77;;;22.60;53.10;;;;;;5038124;28;20041;-62
2021/11/01 03:23:14;;;;;;;2.85;2.08;;;22.60;53.20;;;;;;5048369;28;20372;-58
2021/11/01 03:25:45;;;;;;;2.90;1.98;;;22.60;53.20;;;;;;5039428;28;20050;-56
2021/11/01 03:28:13;;;;;;;3.63;1.95;;;22.60;53.20;;;;;;5046965;28;20040;-59
2021/11/01 03:30:40;;;;;;;2.63;1.98;;;22.60;53.20;;;;;;5036333;28;20087;-58
2021/11/01 03:33:06;;;;;;;2.30;1.80;;;22.60;53.20;;;;;;5050665;28;20143;-60
2021/11/01 03:35:33;;;;;;;2.92;2.00;;;22.60;53.20;;;;;;5046012;28;20392;-59
2021/11/01 03:38:01;;;;;;;2.33;1.70;;;22.50;53.20;;;;;;5035073;28;20037;-60
2021/11/01 03:40:32;;;;;;;2.50;1.60;;;22.50;53.20;;;;;;5041478;28;20113;-58
2021/11/01 03:42:59;;;;;;;2.63;1.80;;;22.50;53.30;;;;;;5043118;28;20095;-56
2021/11/01 03:45:26;;;;;;;3.90;2.00;;;22.50;53.30;;;;;;5039605;28;20041;-56
2021/11/01 03:47:54;;;;;;;2.10;1.60;;;22.50;53.30;;;;;;5039932;28;20044;-56
2021/11/01 03:52:53;;;;;;;2.63;1.98;;;22.50;53.30;;;;;;5045242;28;20497;-54
2021/11/01 03:55:20;;;;;;;2.35;1.65;;;22.50;53.30;;;;;;5028279;28;20045;-54
2021/11/01 03:57:48;;;;;;;2.55;1.80;;;22.40;53.30;;;;;;5034065;28;20043;-56
2021/11/01 04:00:15;;;;;;;2.92;1.90;;;22.40;53.30;;;;;;5040097;28;20021;-56
2021/11/01 04:02:43;;;;;;;2.33;1.83;;;22.50;53.40;;;;;;5040702;28;20037;-61
2021/11/01 04:05:09;;;;;;;2.53;1.90;;;22.40;53.30;;;;;;5038753;28;20024;-56
2021/11/01 04:07:35;;;;;;;2.47;1.80;;;22.40;53.40;;;;;;5036619;28;20511;-58
2021/11/01 04:10:02;;;;;;;2.70;1.90;;;22.40;53.40;;;;;;5045963;28;20461;-61
2021/11/01 04:12:27;;;;;;;2.50;1.83;;;22.40;53.40;;;;;;5043964;28;20496;-60
2021/11/01 04:15:15;;;;;;;2.38;1.88;;;22.40;53.40;;;;;;5045597;28;20120;-59
2021/11/01 04:22:50;;;;;;;2.40;1.75;;;22.40;53.50;;;;;;5048166;28;20551;-56
2021/11/01 04:25:19;;;;;;;2.33;1.65;;;22.40;53.50;;;;;;5045934;28;20056;-57
2021/11/01 04:27:45;;;;;;;3.20;1.88;;;22.40;53.50;;;;;;5044277;28;20443;-60
2021/11/01 04:30:11;;;;;;;2.45;1.77;;;22.30;53.50;;;;;;5038812;28;20056;-62
2021/11/01 04:32:42;;;;;;;2.90;1.92;;;22.30;53.40;;;;;;5030783;28;20033;-61
2021/11/01 04:37:38;;;;;;;2.50;1.60;;;22.30;53.50;;;;;;5030784;28;20038;-59
2021/11/01 04:53:14;;;;;;;3.30;1.90;;;22.30;53.60;;;;;;5043725;28;20040;-56
2021/11/01 04:55:42;;;;;;;2.70;1.90;;;22.20;53.50;;;;;;5049177;28;20033;-59
2021/11/01 04:58:08;;;;;;;2.25;1.70;;;22.20;53.60;;;;;;5044909;28;20042;-62
2021/11/01 05:00:34;;;;;;;2.53;1.80;;;22.30;53.60;;;;;;5047087;28;20037;-55
2021/11/01 05:03:09;;;;;;;2.28;1.70;;;22.20;53.60;;;;;;5035703;28;20086;-52
2021/11/01 05:05:35;;;;;;;2.50;1.83;;;22.20;53.60;;;;;;5049784;28;20036;-58
2021/11/01 05:08:01;;;;;;;2.80;1.80;;;22.20;54.10;;;;;;5052222;28;20093;-52
2021/11/01 05:10:37;;;;;;;2.85;1.90;;;22.20;53.60;;;;;;5041437;28;20090;-61
2021/11/01 05:13:11;;;;;;;2.17;1.50;;;22.20;53.60;;;;;;5032800;28;20060;-55
2021/11/01 05:15:54;;;;;;;2.20;1.60;;;22.20;53.60;;;;;;5048818;28;20427;-60
2021/11/01 05:23:39;;;;;;;2.65;1.80;;;22.20;53.70;;;;;;5050538;28;20518;-54
2021/11/01 05:26:12;;;;;;;2.30;1.80;;;22.10;53.70;;;;;;5034543;28;20029;-59
2021/11/01 05:28:45;;;;;;;2.58;1.73;;;22.10;53.70;;;;;;5039429;28;20123;-58
2021/11/01 05:31:24;;;;;;;2.50;1.88;;;22.10;53.70;;;;;;5036708;28;20469;-56
2021/11/01 05:36:22;;;;;;;2.50;1.85;;;22.10;53.70;;;;;;5044864;28;20037;-58
2021/11/01 05:38:49;;;;;;;2.53;1.70;;;22.10;53.70;;;;;;5043924;28;20033;-60
2021/11/01 05:41:16;;;;;;;2.80;1.70;;;22.10;53.70;;;;;;5042547;28;20074;-57
2021/11/01 05:43:42;;;;;;;2.33;1.65;;;22.10;53.70;;;;;;5044050;28;20596;-63
2021/11/01 05:46:08;;;;;;;2.30;1.65;;;22.10;53.70;;;;;;5040635;28;20418;-62
2021/11/01 05:48:34;;;;;;;2.13;1.42;;;22.10;53.70;;;;;;5046303;28;20025;-55
2021/11/01 05:51:00;;;;;;;2.30;1.67;;;22.10;53.70;;;;;;5048058;28;20032;-60
2021/11/01 05:53:32;;;;;;;2.40;1.60;;;22.10;53.80;;;;;;5045145;28;20110;-60
2021/11/01 05:58:40;;;;;;;2.20;1.65;;;22.10;53.80;;;;;;5040509;28;20037;-60
2021/11/01 06:08:39;;;;;;;2.33;1.60;;;22.10;53.80;;;;;;5039553;28;20029;-55
2021/11/01 06:13:26;;;;;;;2.90;1.70;;;22.10;53.80;;;;;;5044509;28;20025;-55
2021/11/01 06:13:55;;;;;;;2.83;1.95;;;22.10;53.80;;;;;;5059902;28;20077;-61
2021/11/01 06:16:21;;;;;;;2.50;1.80;;;22.00;53.80;;;;;;5046921;28;20052;-59
2021/11/01 06:18:48;;;;;;;2.17;1.58;;;22.00;53.80;;;;;;5038207;28;20338;-60
2021/11/01 06:21:16;;;;;;;2.50;1.83;;;22.00;53.70;;;;;;5045872;28;20053;-60
2021/11/01 06:23:52;;;;;;;2.50;1.80;;;22.00;53.80;;;;;;5054461;28;20040;-61
2021/11/01 06:26:18;;;;;;;2.80;1.90;;;22.00;53.80;;;;;;5044591;28;20023;-57
2021/11/01 06:28:45;;;;;;;2.22;1.58;;;22.00;53.80;;;;;;5046865;28;20721;-62
2021/11/01 06:31:18;;;;;;;2.45;1.52;;;22.00;53.80;;;;;;5039464;28;20060;-58
2021/11/01 07:19:14;;;;;;;1.90;1.50;;;21.90;53.80;;;;;;5044973;28;20029;-53
2021/11/01 08:24:48;;;;;;;2.15;1.55;;;21.80;53.60;;;;;;5040728;28;20029;-61
2021/11/01 08:30:18;;;;;;;2.33;1.60;;;21.80;53.60;;;;;;5041555;28;20409;-57
2021/11/01 08:36:21;;;;;;;2.08;1.40;;;21.80;53.50;;;;;;5042039;28;20040;-57
2021/11/01 08:41:09;;;;;;;2.55;1.52;;;21.80;53.50;;;;;;5037201;28;20025;-62
2021/11/01 09:20:21;;;;;;;1.92;1.50;;;21.70;53.60;;;;;;5042889;28;20047;-59
2021/11/01 09:41:24;;;;;;;3.88;1.50;;;21.80;53.80;;;;;;5037835;28;20127;-57
2021/11/01 09:43:54;;;;;;;2.15;1.40;;;21.70;53.80;;;;;;5042331;28;20041;-54
2021/11/01 09:46:22;;;;;;;1.80;1.30;;;21.80;53.80;;;;;;5039408;28;20516;-58
2021/11/01 09:48:52;;;;;;;2.20;1.40;;;21.80;53.90;;;;;;5043930;28;20040;-58
2021/11/01 09:51:18;;;;;;;2.25;1.40;;;21.70;53.80;;;;;;5039238;28;20049;-59
2021/11/01 09:53:47;;;;;;;2.25;1.42;;;21.70;53.80;;;;;;5039384;28;20030;-52
2021/11/01 09:57:00;;;;;;;1.60;1.30;;;21.80;53.90;;;;;;5047933;28;20485;-59
2021/11/01 09:59:11;;;;;;;1.65;1.20;;;21.70;53.80;;;;;;5037613;28;20044;-59
2021/11/01 10:01:42;;;;;;;2.25;1.33;;;21.70;53.80;;;;;;5034065;28;20040;-58
2021/11/01 10:04:16;;;;;;;1.73;1.30;;;21.70;53.80;;;;;;5039736;28;20037;-58
2021/11/01 10:06:43;;;;;;;1.85;1.20;;;21.70;53.90;;;;;;5040980;28;20148;-57
2021/11/01 10:09:12;;;;;;;2.92;1.30;;;21.70;53.80;;;;;;5042497;28;20032;-58
2021/11/01 10:11:41;;;;;;;;;;;21.70;53.90;;;;;;5042568;28;20164;-56
2021/11/01 10:14:09;;;;;;;2.15;1.50;;;21.70;53.90;;;;;;5040749;28;19913;-58
2021/11/01 10:19:38;;;;;;;1.95;1.20;;;21.70;53.90;;;;;;5038369;28;20405;-54
2021/11/01 10:22:24;;;;;;;2.22;1.45;;;21.70;53.90;;;;;;5044952;28;20033;-59
2021/11/01 10:24:53;;;;;;;2.08;1.50;;;21.70;53.90;;;;;;5035919;28;20022;-54
2021/11/01 10:27:35;;;;;;;2.58;1.30;;;21.70;54.00;;;;;;5051993;28;20027;-58
2021/11/01 10:30:13;;;;;;;2.42;1.42;;;21.70;54.00;;;;;;5042671;28;20063;-58
2021/11/01 10:32:44;;;;;;;2.08;1.35;;;21.70;54.00;;;;;;5035241;28;20041;-53
2021/11/01 10:35:30;;;;;;;1.98;1.30;;;21.70;54.10;;;;;;5034744;28;20094;-56
2021/11/01 10:38:31;;;;;;;2.10;1.40;;;21.70;54.00;;;;;;5046324;28;20026;-58
2021/11/01 10:41:27;;;;;;;2.28;1.30;;;21.70;54.00;;;;;;5038922;28;20029;-59
2021/11/01 10:47:07;;;;;;;3.17;1.40;;;21.70;54.10;;;;;;5037587;28;20124;-58
2021/11/01 11:22:08;;;;;;;2.67;1.40;;;21.70;54.30;;;;;;5038442;28;20572;-59
2021/11/01 11:47:42;;;;;;;2.78;1.60;;;21.90;54.30;;;;;;5036989;28;20090;-57
2021/11/01 11:50:20;;;;;;;3.95;1.70;;;21.90;54.10;;;;;;5033657;28;20039;-56
2021/11/01 11:52:47;;;;;;;2.53;1.48;;;21.90;54.10;;;;;;5041557;28;20079;-59
2021/11/01 11:55:21;;;;;;;3.28;1.45;;;21.90;54.00;;;;;;5040669;28;20102;-56
2021/11/01 11:58:02;;;;;;;2.97;1.70;;;21.90;53.90;;;;;;5033368;28;20041;-59
2021/11/01 12:00:30;;;;;;;2.88;1.48;;;22.00;53.90;;;;;;5047895;28;20170;-58
2021/11/01 12:03:06;;;;;;;2.53;1.40;;;22.00;54.10;;;;;;5034165;28;20505;-58
2021/11/01 12:05:35;;;;;;;2.85;1.35;;;22.00;54.00;;;;;;5031596;28;20032;-56
2021/11/01 12:19:03;;;;;;;2.58;1.40;;;22.20;53.60;;;;;;5040242;28;20062;-58
2021/11/01 12:21:31;;;;;;;2.37;1.23;;;22.20;53.50;;;;;;5033809;28;20040;-57
2021/11/01 12:23:58;;;;;;;2.85;1.40;;;22.30;53.40;;;;;;5031294;28;20340;-56
2021/11/01 12:26:25;;;;;;;2.95;1.48;;;22.30;53.40;;;;;;5035689;28;20678;-59
2021/11/01 12:28:59;;;;;;;2.25;1.30;;;22.30;53.30;;;;;;5059764;28;20123;-58
2021/11/01 12:31:27;;;;;;;2.30;1.35;;;22.40;53.30;;;;;;5036416;28;20484;-58
2021/11/01 12:36:27;;;;;;;2.88;1.40;;;22.40;53.20;;;;;;5037009;28;20750;-58
2021/11/01 12:38:58;;;;;;;3.03;1.25;;;22.40;53.20;;;;;;5031095;28;20128;-59
2021/11/01 12:47:35;;;;;;;2.80;1.40;;;22.40;53.40;;;;;;5035037;28;20087;-59
2021/11/01 12:57:25;;;;;;;2.53;1.20;;;22.40;53.30;;;;;;5034572;28;20052;-58
2021/11/01 12:59:51;;;;;;;2.67;1.40;;;22.40;53.30;;;;;;5045424;28;20045;-58
2021/11/01 13:02:27;;;;;;;2.05;1.20;;;22.40;53.30;;;;;;5037412;28;20040;-59
2021/11/01 13:04:56;;;;;;;2.92;1.20;;;22.40;53.30;;;;;;5042022;28;20020;-59
2021/11/01 13:10:43;;;;;;;2.70;1.33;;;22.40;53.20;;;;;;5014707;28;21210;-58
2021/11/01 13:19:15;;;;;;;2.75;1.20;;;22.40;53.20;;;;;;5054937;28;20047;-53
2021/11/01 13:24:14;;;;;;;2.60;1.20;;;22.40;53.30;;;;;;5038280;28;20028;-59
2021/11/01 13:27:00;;;;;;;2.03;1.20;;;22.40;53.30;;;;;;5040900;28;20025;-56
2021/11/01 13:37:42;;;;;;;3.05;1.38;;;22.30;53.20;;;;;;5048365;28;20048;-56
2021/11/01 13:40:13;;;;;;;1.90;1.20;;;22.30;53.30;;;;;;5044670;28;20096;-58
2021/11/01 13:42:46;;;;;;;2.10;1.20;;;22.30;53.30;;;;;;5040176;28;20040;-58
2021/11/01 13:45:15;;;;;;;1.77;1.13;;;22.30;53.20;;;;;;5042528;28;20032;-58
2021/11/01 13:47:51;;;;;;;3.50;1.25;;;22.30;53.30;;;;;;5038472;28;20170;-59
2021/11/01 13:50:20;;;;;;;2.13;1.10;;;22.30;53.30;;;;;;5043406;28;20025;-59
2021/11/01 13:53:14;;;;;;;2.42;1.20;;;22.30;53.30;;;;;;5048098;28;20182;-58
2021/11/01 13:56:02;;;;;;;1.85;1.10;;;22.30;53.20;;;;;;5043356;28;20033;-58
2021/11/01 14:12:26;;;;;;;1.90;1.20;;;22.20;53.30;;;;;;5039236;28;20044;-54
2021/11/01 14:36:46;;;;;;;1.70;1.10;;;22.10;53.30;;;;;;5053199;28;20066;-58
2021/11/01 14:56:33;;;;;;;2.22;1.25;;;22.00;53.30;;;;;;5039369;28;20028;-56
2021/11/01 15:26:03;;;;;;;2.22;1.23;;;22.00;53.50;;;;;;5032472;28;20128;-58
2021/11/01 15:27:59;;;;;;;1.85;1.20;;;21.90;53.40;;;;;;5022318;28;20045;-56
2021/11/01 16:18:59;;;;;;;1.55;1.00;;;21.80;53.50;;;;;;5047530;28;20116;-58
2021/11/01 16:21:24;;;;;;;1.63;0.93;;;21.80;53.60;;;;;;5040229;28;20603;-56
2021/11/01 16:23:50;;;;;;;1.83;1.30;;;21.80;53.60;;;;;;5039063;28;20094;-55
2021/11/01 16:28:48;;;;;;;2.20;1.30;;;21.80;53.60;;;;;;5040290;28;20037;-57
2021/11/01 16:31:30;;;;;;;2.08;1.23;;;21.80;53.60;;;;;;5034304;28;20037;-57
2021/11/01 16:34:05;;;;;;;2.40;1.20;;;21.80;53.60;;;;;;5034830;28;20095;-58
2021/11/01 16:39:43;;;;;;;1.92;1.10;;;21.80;53.60;;;;;;5033251;28;20029;-58
2021/11/01 16:42:09;;;;;;;3.50;1.80;;;21.80;53.60;;;;;;5031788;28;20067;-53
2021/11/01 16:44:39;;;;;;;2.20;1.23;;;21.80;53.60;;;;;;5034105;28;20025;-56
2021/11/01 16:47:04;;;;;;;3.35;1.40;;;21.70;53.60;;;;;;5034162;28;20025;-58
2021/11/01 16:49:31;;;;;;;2.08;1.55;;;21.80;53.60;;;;;;5033348;28;20097;-56
2021/11/01 16:52:01;;;;;;;3.05;1.10;;;21.70;53.60;;;;;;5033429;28;20127;-58
2021/11/01 16:54:30;;;;;;;2.47;1.10;;;21.70;54.20;;;;;;5038459;28;20070;-56
2021/11/01 17:00:03;;;;;;;2.70;1.65;;;21.90;53.80;;;;;;5037952;28;20044;-58
2021/11/01 17:02:32;;;;;;;2.67;1.50;;;22.00;53.60;;;;;;5032192;28;20037;-57
2021/11/01 17:29:26;;;;;;;2.30;1.13;;;22.00;53.70;;;;;;5034103;28;20029;-58
2021/11/01 17:35:43;;;;;;;2.15;1.10;;;22.00;53.70;;;;;;5025917;28;19916;-58
2021/11/01 17:38:13;;;;;;;2.83;1.50;;;22.00;53.90;;;;;;5031001;28;20061;-58
2021/11/01 18:50:51;;;;;;;2.35;1.23;;;22.90;52.70;;;;;;5015963;28;20991;-55
2021/11/01 18:52:11;;;;;;;2.97;1.30;;;22.90;52.70;;;;;;5025680;28;20082;-56
2021/11/01 18:54:41;;;;;;;2.95;1.30;;;22.90;52.70;;;;;;5030223;28;20480;-59
2021/11/01 18:57:07;;;;;;;2.65;1.50;;;22.90;52.70;;;;;;5023204;28;20444;-55
2021/11/01 18:59:36;;;;;;;3.70;1.38;;;22.90;52.70;;;;;;5035026;28;20116;-55
2021/11/01 19:04:37;;;;;;;2.90;1.50;;;22.90;52.90;;;;;;5036843;28;20048;-56
2021/11/01 19:09:49;;;;;;;2.83;1.55;;;22.80;52.80;;;;;;5034970;28;20048;-57
2021/11/01 20:08:17;;;;;;;3.30;1.58;;;22.90;53.50;;;;;;5028651;28;20662;-59
2021/11/01 21:25:39;;;;;;;3.60;1.20;;;23.20;52.90;;;;;;5030889;28;20631;-56
2021/11/01 21:28:05;;;;;;;2.75;1.20;;;23.20;52.80;;;;;;5027705;28;20029;-58
2021/11/01 21:30:30;;;;;;;2.60;1.63;;;23.30;52.90;;;;;;5031730;28;20557;-58
2021/11/01 21:32:56;;;;;;;3.67;1.20;;;23.30;52.80;;;;;;5035466;28;20547;-56
2021/11/01 21:35:27;;;;;;;3.40;1.38;;;23.30;52.90;;;;;;5029200;28;20033;-58
2021/11/01 21:37:53;;;;;;;3.50;1.30;;;23.30;52.90;;;;;;5025619;28;20037;-58
2021/11/01 21:40:19;;;;;;;2.20;1.20;;;23.20;52.80;;;;;;5029225;28;20034;-56
2021/11/01 21:42:45;;;;;;;3.50;1.63;;;23.20;52.80;;;;;;5046343;28;20028;-59
2021/11/01 21:45:11;;;;;;;2.78;1.20;;;23.20;52.80;;;;;;5042404;28;20035;-58
2021/11/01 21:47:37;;;;;;;2.75;1.10;;;23.20;52.80;;;;;;5040160;28;20657;-57
2021/11/01 21:50:06;;;;;;;2.83;1.17;;;23.20;52.80;;;;;;5036857;28;20850;-56
2021/11/01 21:52:33;;;;;;;3.15;1.20;;;23.20;52.90;;;;;;5030769;28;20049;-57
2021/11/01 21:54:59;;;;;;;2.75;1.15;;;23.20;52.90;;;;;;5033771;28;20559;-57
2021/11/01 22:24:27;;;;;;;2.20;1.30;;;23.10;53.20;;;;;;5034834;28;20029;-57
2021/11/01 22:27:19;;;;;;;3.53;1.23;;;23.00;53.10;;;;;;5032985;28;20517;-58
2021/11/01 22:40:38;;;;;;;2.13;1.10;;;22.90;53.30;;;;;;5031162;28;20048;-56
2021/11/01 22:43:08;;;;;;;3.10;1.30;;;22.90;53.40;;;;;;5028681;28;20365;-57
2021/11/01 22:48:23;;;;;;;3.33;1.30;;;22.90;53.40;;;;;;5034804;28;20030;-56
2021/11/01 22:58:58;;;;;;;2.72;1.20;;;22.80;53.50;;;;;;5039438;28;20026;-54
2021/11/01 23:01:26;;;;;;;3.15;1.10;;;22.80;53.50;;;;;;5029033;28;20038;-58
2021/11/01 23:33:32;;;;;;;2.50;1.23;;;22.70;53.80;;;;;;5049149;28;20044;-53
2021/11/01 23:35:58;;;;;;;2.30;1.20;;;22.70;53.80;;;;;;5033202;28;20388;-57
2021/11/01 23:38:24;;;;;;;2.22;1.20;;;22.70;53.80;;;;;;5037829;28;20033;-57
2021/11/01 23:40:51;;;;;;;3.67;1.48;;;22.60;53.80;;;;;;5043442;28;20035;-58
2021/11/01 23:43:18;;;;;;;2.40;1.00;;;22.70;53.90;;;;;;5050443;28;20040;-58
2021/11/01 23:45:46;;;;;;;2.70;1.20;;;22.60;53.90;;;;;;5035441;28;20052;-58
2021/11/01 23:48:13;;;;;;;2.50;1.13;;;22.60;53.90;;;;;;5039661;28;20024;-58
2021/11/01 23:50:40;;;;;;;3.58;1.30;;;22.60;53.90;;;;;;5034418;28;20025;-59
2021/11/01 23:53:10;;;;;;;1.83;1.00;;;22.60;53.90;;;;;;5038544;28;20037;-54
2021/11/01 23:55:36;;;;;;;2.53;1.13;;;22.60;54.00;;;;;;5033574;28;20089;-59
2021/11/01 23:58:03;;;;;;;2.13;1.30;;;22.60;54.10;;;;;;5039947;28;20143;-59
